< < Back
Terminal Aerodrome Forecast


Current Version              Previous Versions:   1  2  3  4  5  6  7  8  9  

Terminal Aerodrome Forecast

852
FTUS42 KJAX 291120
TAFSSI
TAF
KSSI 291120Z 2912/3012 28005KT P6SM SCT015 SCT150
     FM291400 31013G20KT P6SM VCSH SCT020 BKN150
     FM292000 31009KT P6SM SCT040 SCT150
     FM300000 28006KT P6SM FEW040 SCT150=

Latest METAR

365
SAUS70 KWBC 291900 RRA
MTRSSI
METAR KSSI 291853Z AUTO 32009KT 280V360 10SM CLR 29/16 A3003 RMK AO2
SLP170 T02890156


USA.gov is the U.S. government's official web portal to all federal, state and local government web resources and services.